Terminal Aerodrome Forecast
Issued by NWS Charleston, WV

Home | Current Version | Previous Version | Text Only | Print | Product List | Glossary On
Versions: 1 2 3 4 5 6 7 8 9 10 11 12 13 14 15 16 17 18 19 20 21 22 23 24 25 26 27 28
000
FTUS41 KRLX 011400 AAA
TAFPKB
TAF AMD
KPKB 011451Z 0115/0212 12003KT 4SM -SN BKN013 OVC028
     FM011600 VRB03KT P6SM OVC040
     FM012300 13005KT 5SM -RA BR OVC040
     FM020300 17008G13KT 2SM -RA BR OVC008
     FM020900 24009KT 4SM -SN BR OVC008=

USA.gov is the U.S. government's official web portal to all federal, state and local government web resources and services.